createdAt,value
2023-05-10T00:29:52.911Z,124.8
2023-05-10T01:40:39.646Z,147
2023-05-10T01:41:43.780Z,128.8
2023-05-10T01:44:20.560Z,142.6
2023-05-10T02:04:19.322Z,158.9
2023-05-10T02:09:18.844Z,157
2023-05-10T02:14:18.331Z,160.5
2023-05-10T02:19:19.062Z,160.6
2023-05-10T02:24:16.579Z,169
2023-05-10T02:29:16.501Z,173.7
2023-05-10T02:34:16.329Z,174.1
2023-05-10T02:39:15.658Z,180.9
2023-05-10T02:44:14.316Z,170.3
2023-05-10T02:49:13.962Z,187.9
2023-05-10T02:54:14.092Z,174
2023-05-10T02:59:13.321Z,175
2023-05-10T03:04:13.057Z,175.5
2023-05-10T03:09:12.352Z,175.9
2023-05-10T03:14:12.787Z,186.9
2023-05-10T03:19:12.159Z,176.8
2023-05-10T03:24:10.824Z,168.7
2023-05-10T03:29:10.647Z,177.8
2023-05-10T03:34:10.506Z,168.3
2023-05-10T03:39:09.479Z,170.1
2023-05-10T03:44:09.225Z,173.5
2023-05-10T03:49:08.572Z,171.8
2023-05-10T03:54:08.297Z,182.5
2023-05-10T03:59:07.410Z,181.2
2023-05-10T04:15:27.860Z,189.9
2023-05-10T04:30:25.418Z,193.2
2023-05-10T04:40:25.194Z,185.4
2023-05-10T04:45:23.801Z,184
2023-05-10T04:50:23.126Z,177.1
2023-05-10T05:04:51.356Z,170.1
2023-05-10T07:04:13.067Z,160.9
2023-05-10T07:09:12.579Z,164.1
2023-05-10T07:14:12.628Z,172.6
2023-05-10T07:19:12.051Z,168.6
2023-05-10T07:24:11.169Z,173.9
2023-05-10T07:29:10.820Z,165.7
2023-05-10T07:34:10.427Z,157.5
2023-05-10T07:39:16.221Z,160.6
2023-05-10T07:44:10.492Z,162.7
2023-05-10T07:49:07.974Z,161.6
2023-05-10T07:54:07.877Z,163.5
2023-05-10T07:59:09.337Z,165.2
2023-05-10T08:20:28.808Z,184.2
2023-05-10T09:15:21.434Z,182.4
2023-05-10T11:04:16.225Z,192.8
2023-05-10T11:09:15.582Z,198.9
2023-05-10T11:14:15.749Z,194.4
2023-05-10T11:19:15.733Z,188.9
2023-05-10T11:24:13.844Z,186.7
2023-05-10T11:29:13.301Z,190.4
2023-05-10T11:34:13.579Z,183.1
2023-05-10T11:39:12.474Z,175.8
2023-05-10T11:44:12.185Z,168.8
2023-05-10T11:49:11.260Z,156.7
2023-05-10T11:54:11.512Z,168.3
2023-05-10T11:59:10.654Z,159.9
2023-05-10T12:04:12.724Z,158.4
2023-05-10T12:09:08.655Z,178.4
2023-05-10T12:14:08.421Z,178.4
2023-05-10T12:19:07.698Z,188.4
2023-05-10T12:24:07.281Z,182.5
2023-05-10T12:29:05.543Z,194.4
2023-05-10T12:34:05.181Z,205.9
2023-05-10T12:39:05.903Z,199.1
2023-05-10T12:44:04.597Z,175.1
2023-05-10T12:49:18.201Z,194.8
2023-05-10T12:54:06.724Z,196.5
2023-05-10T12:59:07.637Z,187.3
2023-05-10T13:05:23.519Z,168.2
2023-05-10T13:10:22.986Z,164
2023-05-10T13:15:22.970Z,174.2
2023-05-10T13:20:22.587Z,168.6
2023-05-10T13:25:21.887Z,187.8
2023-05-10T13:30:21.503Z,189.1
2023-05-10T13:35:21.500Z,193.2
2023-05-10T13:40:21.144Z,188.4
2023-05-10T13:45:21.502Z,179.1
2023-05-10T13:50:18.866Z,163.6
2023-05-10T13:55:19.153Z,152.9
2023-05-10T15:04:20.520Z,181.9
2023-05-10T15:09:18.529Z,168.8
2023-05-10T15:14:18.403Z,159.4
2023-05-10T15:19:18.168Z,161.9
2023-05-10T15:24:17.607Z,155.1
2023-05-10T15:29:18.577Z,175.5
2023-05-10T15:34:15.527Z,173.7
2023-05-10T15:39:15.276Z,161.3
2023-05-10T15:44:14.932Z,161.3
2023-05-10T15:49:14.455Z,162.9
2023-05-10T15:54:29.490Z,178
2023-05-10T15:59:12.387Z,181
2023-05-10T16:04:12.636Z,184.9
2023-05-10T16:09:14.477Z,185.5
2023-05-10T16:14:10.050Z,184
2023-05-10T16:19:10.651Z,184.9
2023-05-10T16:24:10.298Z,186
2023-05-10T16:29:09.689Z,184.2
2023-05-10T16:34:08.184Z,186.5
2023-05-10T16:39:07.982Z,171.6
2023-05-10T16:44:07.577Z,167.2
2023-05-10T16:49:07.321Z,164.9
2023-05-10T16:54:06.440Z,174.9
2023-05-10T16:59:06.236Z,172
2023-05-10T17:10:25.449Z,178.9
2023-05-10T17:15:25.180Z,195.8
2023-05-10T17:20:25.888Z,180.6
2023-05-10T17:25:24.377Z,173.1
2023-05-10T17:30:23.847Z,180.7
2023-05-10T17:35:22.854Z,177.5
2023-05-10T17:40:22.809Z,165.8
2023-05-10T17:45:22.853Z,163.1
2023-05-10T17:50:21.351Z,163.7
2023-05-10T17:55:20.834Z,160.3
2023-05-10T17:59:52.756Z,182.9
2023-05-10T18:04:55.178Z,179
2023-05-10T18:09:50.911Z,176.7
2023-05-10T18:15:04.261Z,156.8
2023-05-10T18:19:51.570Z,162.2
2023-05-10T18:24:51.339Z,153.3
2023-05-10T18:29:38.535Z,151.7
2023-05-10T18:34:38.343Z,148.1
2023-05-10T18:39:37.797Z,149
2023-05-10T18:44:36.930Z,165
2023-05-10T18:49:36.131Z,146.1
2023-05-10T18:54:35.790Z,160.5
2023-05-10T18:59:22.186Z,166.8
2023-05-10T19:04:23.013Z,174.8
2023-05-10T19:09:20.070Z,184.6
2023-05-10T19:14:19.879Z,190.5
2023-05-10T19:19:20.225Z,189.6
2023-05-10T19:24:19.964Z,191
2023-05-10T19:29:19.478Z,184.7
2023-05-10T19:34:21.819Z,192.9
2023-05-10T19:39:18.718Z,192.1
2023-05-10T19:44:19.244Z,193.3
2023-05-10T19:49:18.066Z,190.5
2023-05-10T19:54:16.397Z,179.8
2023-05-10T19:59:15.900Z,187.9
2023-05-10T20:04:15.093Z,188.4
2023-05-10T20:09:13.510Z,189.3
2023-05-10T20:14:13.044Z,190.2
2023-05-10T20:19:15.358Z,179.7
2023-05-10T20:24:12.356Z,181.9
2023-05-10T20:29:11.488Z,186
2023-05-10T20:34:10.960Z,185.3
2023-05-10T20:39:10.996Z,173
2023-05-10T20:44:10.013Z,176.2
2023-05-10T20:49:10.764Z,174.3
2023-05-10T20:54:08.060Z,174
2023-05-10T21:05:28.206Z,161.8
2023-05-10T21:10:27.545Z,160
2023-05-10T21:15:27.396Z,166
2023-05-10T21:20:26.662Z,180.7
2023-05-10T21:25:27.452Z,166.2
2023-05-10T21:30:25.058Z,148
2023-05-10T21:35:24.782Z,165.4
2023-05-10T21:40:24.222Z,184.1
2023-05-10T21:45:23.075Z,170.9
2023-05-10T21:50:21.656Z,158.1
2023-05-10T21:55:21.036Z,180.8
2023-05-10T23:04:19.863Z,168.5
2023-05-10T23:09:20.667Z,173
2023-05-10T23:14:18.211Z,178.8
2023-05-10T23:19:17.858Z,181.3
2023-05-10T23:24:18.312Z,182.9
2023-05-10T23:29:17.324Z,179.5
2023-05-10T23:34:15.795Z,180.9
2023-05-10T23:44:14.983Z,180.1
2023-05-10T23:49:14.541Z,180.6
2023-05-10T23:54:13.486Z,175.7
2023-05-10T23:59:13.024Z,177.1
